Willow Grove, Texas
Current Conditions -  °F | °C
As of 6:55 AM on Saturday 25 Oct 2014 (Local Time) from KTPL Reporting Station
Clear Clear  
Wind Chill: 59°   Ceiling: Unl
Heat Index: 59°   Visibility: 10mi
Dew Point: 52°   Wind: 3mph
Humidity: 77%   Direction: 150°SSE
Pressure: 30.13"   Gusts: NA
Location:  31.2688°N, 97.3985°W
Report Text: KTPL 251155Z AUTO 15003KT 10SM CLR 15/11 A3013 RMK AO1 10180 20150 52003
Loading
Personal Weather Stations






























Interactive Weather Map New forecast layout! Learn more

10-Day Weather Forecast

Advertisements
Track Severe Weather on mobile